sensor_id;sensor_type;location;lat;lon;timestamp;P1;durP1;ratioP1;P2;durP2;ratioP2
13941;SDS011;7043;51.630;7.254;2023-09-30T00:00:25;12.77;;;5.47;;
13941;SDS011;7043;51.630;7.254;2023-09-30T00:02:51;12.07;;;5.07;;
13941;SDS011;7043;51.630;7.254;2023-09-30T00:05:17;13.87;;;5.83;;
13941;SDS011;7043;51.630;7.254;2023-09-30T00:07:45;13.37;;;5.40;;
13941;SDS011;7043;51.630;7.254;2023-09-30T00:10:11;14.13;;;5.70;;
13941;SDS011;7043;51.630;7.254;2023-09-30T00:12:37;12.70;;;5.77;;
13941;SDS011;7043;51.630;7.254;2023-09-30T00:15:03;15.60;;;5.77;;
13941;SDS011;7043;51.630;7.254;2023-09-30T00:17:29;14.47;;;6.10;;
13941;SDS011;7043;51.630;7.254;2023-09-30T00:19:55;16.00;;;7.03;;
13941;SDS011;7043;51.630;7.254;2023-09-30T00:22:21;15.70;;;7.03;;
13941;SDS011;7043;51.630;7.254;2023-09-30T00:24:47;14.00;;;6.77;;
13941;SDS011;7043;51.630;7.254;2023-09-30T00:27:13;14.70;;;7.13;;
13941;SDS011;7043;51.630;7.254;2023-09-30T00:29:39;18.33;;;7.80;;
13941;SDS011;7043;51.630;7.254;2023-09-30T00:32:05;16.83;;;7.53;;
13941;SDS011;7043;51.630;7.254;2023-09-30T00:34:32;18.03;;;7.43;;
13941;SDS011;7043;51.630;7.254;2023-09-30T00:36:58;15.00;;;7.23;;
13941;SDS011;7043;51.630;7.254;2023-09-30T00:39:24;17.10;;;7.20;;
13941;SDS011;7043;51.630;7.254;2023-09-30T00:41:54;17.83;;;7.53;;
13941;SDS011;7043;51.630;7.254;2023-09-30T00:44:20;16.50;;;6.67;;
13941;SDS011;7043;51.630;7.254;2023-09-30T00:46:46;16.80;;;7.77;;
13941;SDS011;7043;51.630;7.254;2023-09-30T00:49:13;18.07;;;7.13;;
13941;SDS011;7043;51.630;7.254;2023-09-30T00:51:39;15.80;;;7.17;;
13941;SDS011;7043;51.630;7.254;2023-09-30T00:54:05;14.83;;;6.87;;
13941;SDS011;7043;51.630;7.254;2023-09-30T00:56:32;13.33;;;6.40;;
13941;SDS011;7043;51.630;7.254;2023-09-30T00:58:59;18.53;;;7.13;;
13941;SDS011;7043;51.630;7.254;2023-09-30T01:01:25;13.83;;;6.47;;
13941;SDS011;7043;51.630;7.254;2023-09-30T01:03:51;11.80;;;6.67;;
13941;SDS011;7043;51.630;7.254;2023-09-30T01:06:17;14.13;;;7.10;;
13941;SDS011;7043;51.630;7.254;2023-09-30T01:08:43;17.80;;;7.30;;
13941;SDS011;7043;51.630;7.254;2023-09-30T01:11:09;15.43;;;7.53;;
13941;SDS011;7043;51.630;7.254;2023-09-30T01:13:36;17.27;;;7.40;;
13941;SDS011;7043;51.630;7.254;2023-09-30T01:16:03;15.30;;;7.50;;
13941;SDS011;7043;51.630;7.254;2023-09-30T01:18:29;15.90;;;7.70;;
13941;SDS011;7043;51.630;7.254;2023-09-30T01:20:56;14.60;;;7.43;;
13941;SDS011;7043;51.630;7.254;2023-09-30T01:23:22;14.67;;;7.77;;
13941;SDS011;7043;51.630;7.254;2023-09-30T01:25:48;18.90;;;7.70;;
13941;SDS011;7043;51.630;7.254;2023-09-30T01:28:14;14.53;;;7.90;;
13941;SDS011;7043;51.630;7.254;2023-09-30T01:30:41;18.87;;;8.43;;
13941;SDS011;7043;51.630;7.254;2023-09-30T01:33:09;17.57;;;7.93;;
13941;SDS011;7043;51.630;7.254;2023-09-30T01:35:35;16.67;;;8.37;;
13941;SDS011;7043;51.630;7.254;2023-09-30T01:38:01;15.57;;;8.10;;
13941;SDS011;7043;51.630;7.254;2023-09-30T01:40:27;14.33;;;7.97;;
13941;SDS011;7043;51.630;7.254;2023-09-30T01:42:53;20.10;;;8.43;;
13941;SDS011;7043;51.630;7.254;2023-09-30T01:45:19;21.07;;;8.90;;
13941;SDS011;7043;51.630;7.254;2023-09-30T01:47:45;18.57;;;9.37;;
13941;SDS011;7043;51.630;7.254;2023-09-30T01:50:11;20.33;;;9.70;;
13941;SDS011;7043;51.630;7.254;2023-09-30T01:52:37;17.37;;;9.37;;
13941;SDS011;7043;51.630;7.254;2023-09-30T01:55:03;19.07;;;10.33;;
13941;SDS011;7043;51.630;7.254;2023-09-30T01:57:29;20.07;;;9.60;;
13941;SDS011;7043;51.630;7.254;2023-09-30T01:59:55;20.50;;;9.57;;
13941;SDS011;7043;51.630;7.254;2023-09-30T02:02:21;18.17;;;9.87;;
13941;SDS011;7043;51.630;7.254;2023-09-30T02:04:47;23.33;;;10.73;;
13941;SDS011;7043;51.630;7.254;2023-09-30T02:07:13;23.50;;;10.53;;
13941;SDS011;7043;51.630;7.254;2023-09-30T02:09:39;20.03;;;10.37;;
13941;SDS011;7043;51.630;7.254;2023-09-30T02:12:06;17.60;;;10.37;;
13941;SDS011;7043;51.630;7.254;2023-09-30T02:14:34;21.50;;;11.07;;
13941;SDS011;7043;51.630;7.254;2023-09-30T02:17:00;19.60;;;11.03;;
13941;SDS011;7043;51.630;7.254;2023-09-30T02:19:26;21.63;;;11.47;;
13941;SDS011;7043;51.630;7.254;2023-09-30T02:21:52;21.57;;;11.80;;
13941;SDS011;7043;51.630;7.254;2023-09-30T02:24:18;21.93;;;11.00;;
13941;SDS011;7043;51.630;7.254;2023-09-30T02:26:44;21.13;;;10.67;;
13941;SDS011;7043;51.630;7.254;2023-09-30T02:29:10;20.77;;;11.17;;
13941;SDS011;7043;51.630;7.254;2023-09-30T02:31:36;22.33;;;11.43;;
13941;SDS011;7043;51.630;7.254;2023-09-30T02:34:02;21.17;;;10.80;;
13941;SDS011;7043;51.630;7.254;2023-09-30T02:36:28;22.27;;;11.90;;
13941;SDS011;7043;51.630;7.254;2023-09-30T02:38:54;22.37;;;10.67;;
13941;SDS011;7043;51.630;7.254;2023-09-30T02:41:20;23.83;;;10.60;;
13941;SDS011;7043;51.630;7.254;2023-09-30T02:43:46;21.10;;;10.53;;
13941;SDS011;7043;51.630;7.254;2023-09-30T02:46:12;24.47;;;11.10;;
13941;SDS011;7043;51.630;7.254;2023-09-30T02:48:38;18.70;;;10.13;;
13941;SDS011;7043;51.630;7.254;2023-09-30T02:51:08;21.93;;;10.40;;
13941;SDS011;7043;51.630;7.254;2023-09-30T02:53:34;22.50;;;10.23;;
13941;SDS011;7043;51.630;7.254;2023-09-30T02:56:00;21.43;;;10.17;;
13941;SDS011;7043;51.630;7.254;2023-09-30T02:58:26;20.40;;;9.30;;
13941;SDS011;7043;51.630;7.254;2023-09-30T03:00:53;19.27;;;9.90;;
13941;SDS011;7043;51.630;7.254;2023-09-30T03:03:19;22.07;;;9.60;;
13941;SDS011;7043;51.630;7.254;2023-09-30T03:05:46;21.23;;;10.20;;
13941;SDS011;7043;51.630;7.254;2023-09-30T03:08:15;18.40;;;9.00;;
13941;SDS011;7043;51.630;7.254;2023-09-30T03:10:41;21.33;;;10.07;;
13941;SDS011;7043;51.630;7.254;2023-09-30T03:13:07;23.77;;;10.17;;
13941;SDS011;7043;51.630;7.254;2023-09-30T03:15:34;19.03;;;9.63;;
13941;SDS011;7043;51.630;7.254;2023-09-30T03:18:00;21.67;;;10.20;;
13941;SDS011;7043;51.630;7.254;2023-09-30T03:20:26;19.27;;;9.17;;
13941;SDS011;7043;51.630;7.254;2023-09-30T03:22:52;20.50;;;9.93;;
13941;SDS011;7043;51.630;7.254;2023-09-30T03:25:19;20.87;;;10.07;;
13941;SDS011;7043;51.630;7.254;2023-09-30T03:27:47;20.83;;;10.60;;
13941;SDS011;7043;51.630;7.254;2023-09-30T03:30:14;20.10;;;10.20;;
13941;SDS011;7043;51.630;7.254;2023-09-30T03:32:40;23.50;;;10.80;;
13941;SDS011;7043;51.630;7.254;2023-09-30T03:35:07;21.07;;;10.43;;
13941;SDS011;7043;51.630;7.254;2023-09-30T03:37:35;24.00;;;10.67;;
13941;SDS011;7043;51.630;7.254;2023-09-30T03:40:02;25.73;;;11.90;;
13941;SDS011;7043;51.630;7.254;2023-09-30T03:42:37;20.73;;;12.00;;
13941;SDS011;7043;51.630;7.254;2023-09-30T03:45:04;27.07;;;13.27;;
13941;SDS011;7043;51.630;7.254;2023-09-30T03:47:32;27.67;;;12.30;;
13941;SDS011;7043;51.630;7.254;2023-09-30T03:49:58;31.27;;;13.53;;
13941;SDS011;7043;51.630;7.254;2023-09-30T03:52:24;34.87;;;14.60;;
13941;SDS011;7043;51.630;7.254;2023-09-30T03:54:51;36.00;;;15.03;;
13941;SDS011;7043;51.630;7.254;2023-09-30T03:57:19;39.83;;;14.47;;
13941;SDS011;7043;51.630;7.254;2023-09-30T03:59:45;34.97;;;12.87;;
13941;SDS011;7043;51.630;7.254;2023-09-30T04:02:12;30.80;;;12.80;;
13941;SDS011;7043;51.630;7.254;2023-09-30T04:04:39;29.27;;;12.40;;
13941;SDS011;7043;51.630;7.254;2023-09-30T04:07:05;23.53;;;12.00;;
13941;SDS011;7043;51.630;7.254;2023-09-30T04:09:32;27.87;;;12.20;;
13941;SDS011;7043;51.630;7.254;2023-09-30T04:11:58;25.70;;;11.83;;
13941;SDS011;7043;51.630;7.254;2023-09-30T04:14:26;24.40;;;11.10;;
13941;SDS011;7043;51.630;7.254;2023-09-30T04:16:52;27.63;;;11.60;;
13941;SDS011;7043;51.630;7.254;2023-09-30T04:19:19;22.83;;;11.27;;
13941;SDS011;7043;51.630;7.254;2023-09-30T04:21:46;22.73;;;11.80;;
13941;SDS011;7043;51.630;7.254;2023-09-30T04:24:12;23.30;;;12.13;;
13941;SDS011;7043;51.630;7.254;2023-09-30T04:26:38;20.53;;;11.40;;
13941;SDS011;7043;51.630;7.254;2023-09-30T04:29:05;23.33;;;11.43;;
13941;SDS011;7043;51.630;7.254;2023-09-30T04:31:33;22.93;;;12.30;;
13941;SDS011;7043;51.630;7.254;2023-09-30T04:33:59;19.83;;;11.00;;
13941;SDS011;7043;51.630;7.254;2023-09-30T04:36:24;21.53;;;10.77;;
13941;SDS011;7043;51.630;7.254;2023-09-30T04:38:50;21.50;;;10.93;;
13941;SDS011;7043;51.630;7.254;2023-09-30T04:41:16;19.97;;;10.40;;
13941;SDS011;7043;51.630;7.254;2023-09-30T04:43:44;20.83;;;10.87;;
13941;SDS011;7043;51.630;7.254;2023-09-30T04:46:10;23.33;;;11.20;;
13941;SDS011;7043;51.630;7.254;2023-09-30T04:48:37;24.03;;;11.27;;
13941;SDS011;7043;51.630;7.254;2023-09-30T04:51:06;21.53;;;11.63;;
13941;SDS011;7043;51.630;7.254;2023-09-30T04:53:33;20.83;;;10.67;;
13941;SDS011;7043;51.630;7.254;2023-09-30T04:55:59;22.70;;;10.90;;
13941;SDS011;7043;51.630;7.254;2023-09-30T04:58:26;19.67;;;10.80;;
13941;SDS011;7043;51.630;7.254;2023-09-30T05:00:52;23.10;;;11.03;;
13941;SDS011;7043;51.630;7.254;2023-09-30T05:03:18;19.10;;;9.93;;
13941;SDS011;7043;51.630;7.254;2023-09-30T05:05:44;19.83;;;10.53;;
13941;SDS011;7043;51.630;7.254;2023-09-30T05:08:10;19.87;;;9.80;;
13941;SDS011;7043;51.630;7.254;2023-09-30T05:10:39;18.13;;;10.37;;
13941;SDS011;7043;51.630;7.254;2023-09-30T05:13:05;20.47;;;10.57;;
13941;SDS011;7043;51.630;7.254;2023-09-30T05:15:30;19.10;;;9.87;;
13941;SDS011;7043;51.630;7.254;2023-09-30T05:17:57;19.17;;;10.43;;
13941;SDS011;7043;51.630;7.254;2023-09-30T05:20:23;21.63;;;10.60;;
13941;SDS011;7043;51.630;7.254;2023-09-30T05:22:49;17.87;;;8.87;;
13941;SDS011;7043;51.630;7.254;2023-09-30T05:25:15;18.47;;;9.10;;
13941;SDS011;7043;51.630;7.254;2023-09-30T05:27:42;18.20;;;8.70;;
13941;SDS011;7043;51.630;7.254;2023-09-30T05:30:08;16.83;;;8.57;;
13941;SDS011;7043;51.630;7.254;2023-09-30T05:32:36;15.77;;;8.70;;
13941;SDS011;7043;51.630;7.254;2023-09-30T05:35:04;17.27;;;8.33;;
13941;SDS011;7043;51.630;7.254;2023-09-30T05:37:30;15.87;;;7.57;;
13941;SDS011;7043;51.630;7.254;2023-09-30T05:39:56;20.10;;;8.90;;
13941;SDS011;7043;51.630;7.254;2023-09-30T05:42:22;16.97;;;8.60;;
13941;SDS011;7043;51.630;7.254;2023-09-30T05:44:48;19.80;;;8.23;;
13941;SDS011;7043;51.630;7.254;2023-09-30T05:47:14;18.37;;;8.40;;
13941;SDS011;7043;51.630;7.254;2023-09-30T05:49:40;18.67;;;8.33;;
13941;SDS011;7043;51.630;7.254;2023-09-30T05:52:06;16.83;;;8.57;;
13941;SDS011;7043;51.630;7.254;2023-09-30T05:54:32;19.83;;;9.40;;
13941;SDS011;7043;51.630;7.254;2023-09-30T05:56:58;19.33;;;10.03;;
13941;SDS011;7043;51.630;7.254;2023-09-30T05:59:25;19.50;;;9.83;;
13941;SDS011;7043;51.630;7.254;2023-09-30T06:01:53;21.30;;;10.90;;
13941;SDS011;7043;51.630;7.254;2023-09-30T06:04:19;17.63;;;9.77;;
13941;SDS011;7043;51.630;7.254;2023-09-30T06:06:46;15.77;;;8.60;;
13941;SDS011;7043;51.630;7.254;2023-09-30T06:09:12;16.30;;;8.27;;
13941;SDS011;7043;51.630;7.254;2023-09-30T06:11:38;17.10;;;8.20;;
13941;SDS011;7043;51.630;7.254;2023-09-30T06:14:06;19.63;;;8.53;;
13941;SDS011;7043;51.630;7.254;2023-09-30T06:16:32;16.63;;;8.00;;
13941;SDS011;7043;51.630;7.254;2023-09-30T06:18:59;18.47;;;7.97;;
13941;SDS011;7043;51.630;7.254;2023-09-30T06:21:25;21.73;;;8.63;;
13941;SDS011;7043;51.630;7.254;2023-09-30T06:23:54;18.43;;;9.03;;
13941;SDS011;7043;51.630;7.254;2023-09-30T06:26:20;18.57;;;9.47;;
13941;SDS011;7043;51.630;7.254;2023-09-30T06:28:46;17.03;;;8.93;;
13941;SDS011;7043;51.630;7.254;2023-09-30T06:31:13;20.13;;;10.13;;
13941;SDS011;7043;51.630;7.254;2023-09-30T06:33:40;18.93;;;9.63;;
13941;SDS011;7043;51.630;7.254;2023-09-30T06:36:10;19.40;;;9.83;;
13941;SDS011;7043;51.630;7.254;2023-09-30T06:38:36;18.43;;;9.70;;
13941;SDS011;7043;51.630;7.254;2023-09-30T06:41:07;21.03;;;9.90;;
13941;SDS011;7043;51.630;7.254;2023-09-30T06:43:33;18.27;;;10.20;;
13941;SDS011;7043;51.630;7.254;2023-09-30T06:46:05;18.00;;;9.80;;
13941;SDS011;7043;51.630;7.254;2023-09-30T06:48:32;19.07;;;10.00;;
13941;SDS011;7043;51.630;7.254;2023-09-30T06:50:58;19.07;;;10.70;;
13941;SDS011;7043;51.630;7.254;2023-09-30T06:53:25;19.40;;;10.00;;
13941;SDS011;7043;51.630;7.254;2023-09-30T06:55:51;20.30;;;10.60;;
13941;SDS011;7043;51.630;7.254;2023-09-30T06:58:17;16.53;;;10.40;;
13941;SDS011;7043;51.630;7.254;2023-09-30T07:00:52;23.90;;;11.30;;
13941;SDS011;7043;51.630;7.254;2023-09-30T07:03:18;20.77;;;10.63;;
13941;SDS011;7043;51.630;7.254;2023-09-30T07:05:44;17.93;;;10.30;;
13941;SDS011;7043;51.630;7.254;2023-09-30T07:08:14;19.23;;;11.03;;
13941;SDS011;7043;51.630;7.254;2023-09-30T07:10:40;20.67;;;11.97;;
13941;SDS011;7043;51.630;7.254;2023-09-30T07:13:06;19.73;;;11.20;;
13941;SDS011;7043;51.630;7.254;2023-09-30T07:15:32;21.83;;;11.73;;
13941;SDS011;7043;51.630;7.254;2023-09-30T07:17:58;21.10;;;11.93;;
13941;SDS011;7043;51.630;7.254;2023-09-30T07:20:24;21.57;;;11.70;;
13941;SDS011;7043;51.630;7.254;2023-09-30T07:22:51;21.40;;;12.13;;
13941;SDS011;7043;51.630;7.254;2023-09-30T07:25:17;20.83;;;12.80;;
13941;SDS011;7043;51.630;7.254;2023-09-30T07:27:43;19.93;;;11.83;;
13941;SDS011;7043;51.630;7.254;2023-09-30T07:30:12;23.73;;;13.57;;
13941;SDS011;7043;51.630;7.254;2023-09-30T07:32:41;26.20;;;13.47;;
13941;SDS011;7043;51.630;7.254;2023-09-30T07:35:07;22.57;;;12.50;;
13941;SDS011;7043;51.630;7.254;2023-09-30T07:37:33;22.73;;;13.03;;
13941;SDS011;7043;51.630;7.254;2023-09-30T07:39:59;17.83;;;12.20;;
13941;SDS011;7043;51.630;7.254;2023-09-30T07:42:25;23.47;;;12.83;;
13941;SDS011;7043;51.630;7.254;2023-09-30T07:44:51;22.07;;;13.30;;
13941;SDS011;7043;51.630;7.254;2023-09-30T07:47:17;19.27;;;11.63;;
13941;SDS011;7043;51.630;7.254;2023-09-30T07:49:44;22.77;;;13.37;;
13941;SDS011;7043;51.630;7.254;2023-09-30T07:52:10;18.97;;;12.03;;
13941;SDS011;7043;51.630;7.254;2023-09-30T07:54:36;21.73;;;12.60;;
13941;SDS011;7043;51.630;7.254;2023-09-30T07:57:02;18.70;;;12.60;;
13941;SDS011;7043;51.630;7.254;2023-09-30T07:59:28;21.33;;;12.30;;
13941;SDS011;7043;51.630;7.254;2023-09-30T08:01:54;21.33;;;12.73;;
13941;SDS011;7043;51.630;7.254;2023-09-30T08:04:20;19.63;;;11.27;;
13941;SDS011;7043;51.630;7.254;2023-09-30T08:06:46;16.57;;;11.43;;
13941;SDS011;7043;51.630;7.254;2023-09-30T08:09:13;21.70;;;11.63;;
13941;SDS011;7043;51.630;7.254;2023-09-30T08:11:39;21.40;;;12.80;;
13941;SDS011;7043;51.630;7.254;2023-09-30T08:14:05;18.87;;;11.40;;
13941;SDS011;7043;51.630;7.254;2023-09-30T08:16:37;17.33;;;11.17;;
13941;SDS011;7043;51.630;7.254;2023-09-30T08:19:03;17.88;;;11.75;;
13941;SDS011;7043;51.630;7.254;2023-09-30T08:21:30;19.80;;;11.70;;
13941;SDS011;7043;51.630;7.254;2023-09-30T08:23:59;17.83;;;11.00;;
13941;SDS011;7043;51.630;7.254;2023-09-30T08:26:25;16.37;;;10.60;;
13941;SDS011;7043;51.630;7.254;2023-09-30T08:28:51;18.90;;;10.97;;
13941;SDS011;7043;51.630;7.254;2023-09-30T08:31:17;17.27;;;11.40;;
13941;SDS011;7043;51.630;7.254;2023-09-30T08:33:43;19.07;;;11.20;;
13941;SDS011;7043;51.630;7.254;2023-09-30T08:36:10;15.20;;;10.23;;
13941;SDS011;7043;51.630;7.254;2023-09-30T08:38:40;18.65;;;11.07;;
13941;SDS011;7043;51.630;7.254;2023-09-30T08:41:06;17.63;;;10.90;;
13941;SDS011;7043;51.630;7.254;2023-09-30T08:43:37;18.35;;;11.45;;
13941;SDS011;7043;51.630;7.254;2023-09-30T08:46:04;17.23;;;10.73;;
13941;SDS011;7043;51.630;7.254;2023-09-30T08:48:31;16.80;;;10.50;;
13941;SDS011;7043;51.630;7.254;2023-09-30T08:50:58;17.10;;;10.90;;
13941;SDS011;7043;51.630;7.254;2023-09-30T08:53:25;15.57;;;10.70;;
13941;SDS011;7043;51.630;7.254;2023-09-30T08:55:54;18.67;;;11.87;;
13941;SDS011;7043;51.630;7.254;2023-09-30T08:58:26;17.92;;;10.93;;
13941;SDS011;7043;51.630;7.254;2023-09-30T09:00:52;14.98;;;9.73;;
13941;SDS011;7043;51.630;7.254;2023-09-30T09:03:19;15.50;;;9.30;;
13941;SDS011;7043;51.630;7.254;2023-09-30T09:05:45;15.20;;;9.13;;
13941;SDS011;7043;51.630;7.254;2023-09-30T09:08:12;14.90;;;9.07;;
13941;SDS011;7043;51.630;7.254;2023-09-30T09:10:57;15.73;;;8.73;;
13941;SDS011;7043;51.630;7.254;2023-09-30T09:13:24;13.48;;;8.75;;
13941;SDS011;7043;51.630;7.254;2023-09-30T09:15:50;14.20;;;8.30;;
13941;SDS011;7043;51.630;7.254;2023-09-30T09:18:31;13.23;;;7.77;;
13941;SDS011;7043;51.630;7.254;2023-09-30T09:23:40;14.52;;;7.25;;
13941;SDS011;7043;51.630;7.254;2023-09-30T09:26:06;12.32;;;6.97;;
13941;SDS011;7043;51.630;7.254;2023-09-30T09:28:36;11.77;;;7.43;;
13941;SDS011;7043;51.630;7.254;2023-09-30T09:31:22;9.65;;;6.57;;
13941;SDS011;7043;51.630;7.254;2023-09-30T09:33:51;11.23;;;6.60;;
13941;SDS011;7043;51.630;7.254;2023-09-30T09:36:18;10.48;;;5.35;;
13941;SDS011;7043;51.630;7.254;2023-09-30T09:38:48;10.13;;;6.15;;
13941;SDS011;7043;51.630;7.254;2023-09-30T09:41:15;9.07;;;4.38;;
13941;SDS011;7043;51.630;7.254;2023-09-30T09:43:42;9.95;;;6.03;;
13941;SDS011;7043;51.630;7.254;2023-09-30T09:46:08;9.82;;;5.50;;
13941;SDS011;7043;51.630;7.254;2023-09-30T09:48:38;10.13;;;5.13;;
13941;SDS011;7043;51.630;7.254;2023-09-30T09:51:04;9.57;;;5.10;;
13941;SDS011;7043;51.630;7.254;2023-09-30T09:53:34;7.80;;;4.55;;
13941;SDS011;7043;51.630;7.254;2023-09-30T09:56:01;8.75;;;4.28;;
13941;SDS011;7043;51.630;7.254;2023-09-30T09:58:28;8.93;;;4.80;;
13941;SDS011;7043;51.630;7.254;2023-09-30T10:00:58;6.18;;;4.50;;
13941;SDS011;7043;51.630;7.254;2023-09-30T10:03:25;8.43;;;3.97;;
13941;SDS011;7043;51.630;7.254;2023-09-30T10:05:52;9.82;;;4.30;;
13941;SDS011;7043;51.630;7.254;2023-09-30T10:08:18;10.18;;;4.18;;
13941;SDS011;7043;51.630;7.254;2023-09-30T10:10:45;6.25;;;4.03;;
13941;SDS011;7043;51.630;7.254;2023-09-30T10:15:56;8.63;;;4.57;;
13941;SDS011;7043;51.630;7.254;2023-09-30T10:18:22;10.05;;;4.50;;
13941;SDS011;7043;51.630;7.254;2023-09-30T10:20:48;7.35;;;3.97;;
13941;SDS011;7043;51.630;7.254;2023-09-30T10:25:44;7.65;;;3.92;;
13941;SDS011;7043;51.630;7.254;2023-09-30T10:33:35;6.95;;;3.67;;
13941;SDS011;7043;51.630;7.254;2023-09-30T10:36:01;6.63;;;3.72;;
13941;SDS011;7043;51.630;7.254;2023-09-30T10:41:00;6.63;;;3.60;;
13941;SDS011;7043;51.630;7.254;2023-09-30T10:43:33;15.02;;;4.70;;
13941;SDS011;7043;51.630;7.254;2023-09-30T10:46:00;8.52;;;4.05;;
13941;SDS011;7043;51.630;7.254;2023-09-30T10:51:13;8.82;;;3.83;;
13941;SDS011;7043;51.630;7.254;2023-09-30T10:53:49;6.22;;;3.50;;
13941;SDS011;7043;51.630;7.254;2023-09-30T10:56:23;9.48;;;4.18;;
13941;SDS011;7043;51.630;7.254;2023-09-30T10:58:52;7.00;;;4.20;;
13941;SDS011;7043;51.630;7.254;2023-09-30T11:01:22;7.75;;;3.75;;
13941;SDS011;7043;51.630;7.254;2023-09-30T11:03:49;7.50;;;3.28;;
13941;SDS011;7043;51.630;7.254;2023-09-30T11:06:20;7.13;;;3.10;;
13941;SDS011;7043;51.630;7.254;2023-09-30T11:11:15;6.47;;;2.92;;
13941;SDS011;7043;51.630;7.254;2023-09-30T11:13:42;8.45;;;3.83;;
13941;SDS011;7043;51.630;7.254;2023-09-30T11:16:08;7.25;;;3.42;;
13941;SDS011;7043;51.630;7.254;2023-09-30T11:18:34;5.78;;;3.15;;
13941;SDS011;7043;51.630;7.254;2023-09-30T11:21:09;5.65;;;3.45;;
13941;SDS011;7043;51.630;7.254;2023-09-30T11:23:36;7.07;;;3.67;;
13941;SDS011;7043;51.630;7.254;2023-09-30T11:26:03;8.30;;;3.95;;
13941;SDS011;7043;51.630;7.254;2023-09-30T11:28:36;7.32;;;3.92;;
13941;SDS011;7043;51.630;7.254;2023-09-30T11:31:03;6.90;;;3.40;;
13941;SDS011;7043;51.630;7.254;2023-09-30T11:33:31;5.43;;;3.35;;
13941;SDS011;7043;51.630;7.254;2023-09-30T11:36:02;6.90;;;3.45;;
13941;SDS011;7043;51.630;7.254;2023-09-30T11:38:32;8.00;;;4.10;;
13941;SDS011;7043;51.630;7.254;2023-09-30T11:41:02;6.97;;;4.53;;
13941;SDS011;7043;51.630;7.254;2023-09-30T11:43:34;7.32;;;3.88;;
13941;SDS011;7043;51.630;7.254;2023-09-30T11:46:04;10.18;;;4.47;;
13941;SDS011;7043;51.630;7.254;2023-09-30T11:48:30;9.35;;;4.47;;
13941;SDS011;7043;51.630;7.254;2023-09-30T11:50:58;6.30;;;4.05;;
13941;SDS011;7043;51.630;7.254;2023-09-30T11:53:28;6.85;;;4.35;;
13941;SDS011;7043;51.630;7.254;2023-09-30T11:55:55;6.28;;;4.30;;
13941;SDS011;7043;51.630;7.254;2023-09-30T11:58:21;9.63;;;5.80;;
13941;SDS011;7043;51.630;7.254;2023-09-30T12:00:47;7.18;;;4.15;;
13941;SDS011;7043;51.630;7.254;2023-09-30T12:03:15;6.30;;;3.75;;
13941;SDS011;7043;51.630;7.254;2023-09-30T12:05:42;6.03;;;4.15;;
13941;SDS011;7043;51.630;7.254;2023-09-30T12:08:09;6.47;;;4.10;;
13941;SDS011;7043;51.630;7.254;2023-09-30T12:10:35;5.78;;;3.78;;
13941;SDS011;7043;51.630;7.254;2023-09-30T12:13:01;7.38;;;4.47;;
13941;SDS011;7043;51.630;7.254;2023-09-30T12:15:28;7.50;;;4.30;;
13941;SDS011;7043;51.630;7.254;2023-09-30T12:17:54;6.40;;;4.50;;
13941;SDS011;7043;51.630;7.254;2023-09-30T12:20:20;8.60;;;5.00;;
13941;SDS011;7043;51.630;7.254;2023-09-30T12:22:46;9.00;;;5.60;;
13941;SDS011;7043;51.630;7.254;2023-09-30T12:25:12;8.75;;;5.32;;
13941;SDS011;7043;51.630;7.254;2023-09-30T12:27:44;8.18;;;5.05;;
13941;SDS011;7043;51.630;7.254;2023-09-30T12:30:11;8.32;;;5.20;;
13941;SDS011;7043;51.630;7.254;2023-09-30T12:32:38;8.57;;;5.30;;
13941;SDS011;7043;51.630;7.254;2023-09-30T12:35:04;9.15;;;5.70;;
13941;SDS011;7043;51.630;7.254;2023-09-30T12:37:30;7.10;;;5.22;;
13941;SDS011;7043;51.630;7.254;2023-09-30T12:39:57;7.70;;;5.32;;
13941;SDS011;7043;51.630;7.254;2023-09-30T12:42:23;8.23;;;4.80;;
13941;SDS011;7043;51.630;7.254;2023-09-30T12:44:49;7.32;;;4.82;;
13941;SDS011;7043;51.630;7.254;2023-09-30T12:47:15;7.60;;;5.13;;
13941;SDS011;7043;51.630;7.254;2023-09-30T12:49:41;9.07;;;5.03;;
13941;SDS011;7043;51.630;7.254;2023-09-30T12:52:07;8.13;;;5.57;;
13941;SDS011;7043;51.630;7.254;2023-09-30T12:54:33;7.03;;;5.30;;
13941;SDS011;7043;51.630;7.254;2023-09-30T12:56:59;8.20;;;5.20;;
13941;SDS011;7043;51.630;7.254;2023-09-30T12:59:25;7.50;;;5.28;;
13941;SDS011;7043;51.630;7.254;2023-09-30T13:01:51;8.00;;;5.65;;
13941;SDS011;7043;51.630;7.254;2023-09-30T13:04:18;8.18;;;4.80;;
13941;SDS011;7043;51.630;7.254;2023-09-30T13:06:44;6.68;;;4.50;;
13941;SDS011;7043;51.630;7.254;2023-09-30T13:09:10;7.57;;;5.10;;
13941;SDS011;7043;51.630;7.254;2023-09-30T13:11:37;8.70;;;4.72;;
13941;SDS011;7043;51.630;7.254;2023-09-30T13:14:03;6.85;;;4.78;;
13941;SDS011;7043;51.630;7.254;2023-09-30T13:16:29;7.80;;;5.03;;
13941;SDS011;7043;51.630;7.254;2023-09-30T13:18:55;9.30;;;4.32;;
13941;SDS011;7043;51.630;7.254;2023-09-30T13:21:21;7.57;;;4.22;;
13941;SDS011;7043;51.630;7.254;2023-09-30T13:23:47;7.32;;;4.15;;
13941;SDS011;7043;51.630;7.254;2023-09-30T13:26:13;4.70;;;3.75;;
13941;SDS011;7043;51.630;7.254;2023-09-30T13:28:39;6.40;;;4.03;;
13941;SDS011;7043;51.630;7.254;2023-09-30T13:31:05;6.63;;;3.78;;
13941;SDS011;7043;51.630;7.254;2023-09-30T13:33:32;7.65;;;4.10;;
13941;SDS011;7043;51.630;7.254;2023-09-30T13:35:58;9.85;;;4.10;;
13941;SDS011;7043;51.630;7.254;2023-09-30T13:38:25;6.68;;;3.80;;
13941;SDS011;7043;51.630;7.254;2023-09-30T13:40:51;5.07;;;3.90;;
13941;SDS011;7043;51.630;7.254;2023-09-30T13:43:17;8.75;;;4.35;;
13941;SDS011;7043;51.630;7.254;2023-09-30T13:45:43;5.70;;;3.85;;
13941;SDS011;7043;51.630;7.254;2023-09-30T13:48:09;8.65;;;3.30;;
13941;SDS011;7043;51.630;7.254;2023-09-30T13:50:36;6.22;;;3.17;;
13941;SDS011;7043;51.630;7.254;2023-09-30T13:53:02;7.40;;;3.70;;
13941;SDS011;7043;51.630;7.254;2023-09-30T13:55:28;6.35;;;3.90;;
13941;SDS011;7043;51.630;7.254;2023-09-30T13:57:54;7.50;;;4.18;;
13941;SDS011;7043;51.630;7.254;2023-09-30T14:00:20;7.25;;;3.70;;
13941;SDS011;7043;51.630;7.254;2023-09-30T14:02:46;9.27;;;5.30;;
13941;SDS011;7043;51.630;7.254;2023-09-30T14:05:12;7.68;;;4.40;;
13941;SDS011;7043;51.630;7.254;2023-09-30T14:07:38;8.73;;;4.10;;
13941;SDS011;7043;51.630;7.254;2023-09-30T14:10:08;7.53;;;3.70;;
13941;SDS011;7043;51.630;7.254;2023-09-30T14:12:35;6.63;;;3.83;;
13941;SDS011;7043;51.630;7.254;2023-09-30T14:15:02;6.68;;;3.83;;
13941;SDS011;7043;51.630;7.254;2023-09-30T14:17:30;7.55;;;3.85;;
13941;SDS011;7043;51.630;7.254;2023-09-30T14:19:56;5.72;;;3.13;;
13941;SDS011;7043;51.630;7.254;2023-09-30T14:22:22;8.85;;;4.43;;
13941;SDS011;7043;51.630;7.254;2023-09-30T14:24:48;6.00;;;4.20;;
13941;SDS011;7043;51.630;7.254;2023-09-30T14:27:14;12.85;;;5.20;;
13941;SDS011;7043;51.630;7.254;2023-09-30T14:29:40;5.95;;;4.18;;
13941;SDS011;7043;51.630;7.254;2023-09-30T14:32:08;7.13;;;4.18;;
13941;SDS011;7043;51.630;7.254;2023-09-30T14:34:34;6.68;;;3.83;;
13941;SDS011;7043;51.630;7.254;2023-09-30T14:37:00;6.00;;;4.03;;
13941;SDS011;7043;51.630;7.254;2023-09-30T14:39:26;6.00;;;4.28;;
13941;SDS011;7043;51.630;7.254;2023-09-30T14:41:52;6.63;;;3.90;;
13941;SDS011;7043;51.630;7.254;2023-09-30T14:44:18;6.20;;;3.80;;
13941;SDS011;7043;51.630;7.254;2023-09-30T14:46:46;5.93;;;3.83;;
13941;SDS011;7043;51.630;7.254;2023-09-30T14:49:13;7.80;;;3.42;;
13941;SDS011;7043;51.630;7.254;2023-09-30T14:51:40;6.93;;;3.75;;
13941;SDS011;7043;51.630;7.254;2023-09-30T14:54:06;5.78;;;3.78;;
13941;SDS011;7043;51.630;7.254;2023-09-30T14:56:32;6.57;;;3.65;;
13941;SDS011;7043;51.630;7.254;2023-09-30T14:58:58;7.50;;;3.80;;
13941;SDS011;7043;51.630;7.254;2023-09-30T15:01:24;6.05;;;3.58;;
13941;SDS011;7043;51.630;7.254;2023-09-30T15:03:51;7.00;;;4.05;;
13941;SDS011;7043;51.630;7.254;2023-09-30T15:06:17;5.65;;;3.80;;